Time;durP1;ratioP1;P1;durP2;ratioP2;P2;SDS_P1;SDS_P2;PMS_P1;PMS_P2;Temp;Humidity;BMP_temperature;BMP_pressure;BME280_temperature;BME280_humidity;BME280_pressure;Samples;Min_cycle;Max_cycle;Signal;HPM_P1;HPM_P2
2023/03/19 00:00:08;;;;;;;10.32;7.72;;;9.50;99.90;;;9.88;100.00;100405.69;5008117;28;20085;-75
2023/03/19 00:02:35;;;;;;;9.65;7.28;;;9.50;99.90;;;9.80;100.00;100414.09;5004459;28;20076;-76
2023/03/19 00:05:03;;;;;;;11.40;7.78;;;9.40;99.90;;;9.92;100.00;100411.50;4996370;28;20394;-77
2023/03/19 00:07:28;;;;;;;11.00;8.38;;;9.40;99.90;;;9.96;100.00;100401.00;4996126;28;20066;-75
2023/03/19 00:09:54;;;;;;;11.98;8.55;;;9.40;99.90;;;9.91;100.00;100405.25;5008104;28;20500;-76
2023/03/19 00:12:20;;;;;;;11.25;7.90;;;9.40;99.90;;;9.91;100.00;100405.25;5007600;28;20041;-75
2023/03/19 00:14:46;;;;;;;9.05;7.45;;;9.40;99.90;;;9.93;100.00;100414.03;5004973;28;20508;-75
2023/03/19 00:17:11;;;;;;;12.07;9.55;;;9.40;99.90;;;9.92;100.00;100406.06;4994236;28;20371;-75
2023/03/19 00:19:38;;;;;;;13.10;9.07;;;9.40;99.90;;;9.73;100.00;100396.94;5019656;28;20093;-75
2023/03/19 00:22:04;;;;;;;13.85;9.68;;;9.30;99.90;;;9.70;100.00;100421.91;5004648;28;20488;-75
2023/03/19 00:24:30;;;;;;;12.73;9.55;;;9.30;99.90;;;9.72;100.00;100422.50;5007778;28;20045;-75
2023/03/19 00:26:56;;;;;;;13.90;10.20;;;9.20;99.90;;;9.70;100.00;100416.44;5010407;28;20034;-75
2023/03/19 00:29:22;;;;;;;13.45;9.85;;;9.30;99.90;;;9.73;100.00;100416.00;5000137;28;20061;-76
2023/03/19 00:31:48;;;;;;;13.95;10.57;;;9.30;99.90;;;9.79;100.00;100426.03;5005816;28;20469;-75
2023/03/19 00:34:17;;;;;;;14.75;10.27;;;9.20;99.90;;;9.66;100.00;100412.50;5007459;28;20025;-76
2023/03/19 00:36:44;;;;;;;14.32;10.27;;;9.20;99.90;;;9.61;100.00;100422.16;5001291;28;20379;-77
2023/03/19 00:39:10;;;;;;;15.40;11.20;;;9.20;99.90;;;9.50;100.00;100417.38;4991453;28;20088;-77
2023/03/19 00:41:36;;;;;;;14.82;10.43;;;9.10;99.90;;;9.59;100.00;100429.72;4996473;28;20062;-77
2023/03/19 00:44:02;;;;;;;14.30;9.77;;;9.00;99.90;;;9.38;100.00;100410.94;5006062;28;20045;-76
2023/03/19 00:46:29;;;;;;;15.32;9.73;;;8.90;99.90;;;9.26;100.00;100402.59;5003414;28;20036;-76
2023/03/19 00:48:55;;;;;;;13.45;9.73;;;8.70;99.90;;;9.68;100.00;100416.69;5008463;28;20033;-75
2023/03/19 00:51:22;;;;;;;15.45;10.75;;;8.60;99.90;;;9.71;100.00;100416.25;4996254;28;20042;-76
2023/03/19 00:53:48;;;;;;;15.95;10.70;;;8.50;99.90;;;9.72;100.00;100417.06;5001786;28;20049;-75
2023/03/19 00:56:17;;;;;;;15.50;11.27;;;8.40;99.90;;;9.66;100.00;100417.94;5009423;28;20044;-75
2023/03/19 00:58:45;;;;;;;16.83;12.10;;;8.40;99.90;;;9.42;100.00;100402.13;5003940;28;20037;-75
2023/03/19 01:01:15;;;;;;;16.55;12.77;;;8.30;99.90;;;9.42;100.00;100415.75;5005550;28;20043;-77
2023/03/19 01:03:43;;;;;;;18.35;12.82;;;8.30;99.90;;;9.49;100.00;100412.97;5004366;28;20121;-76
2023/03/19 01:06:10;;;;;;;22.73;14.55;;;8.30;99.90;;;9.40;100.00;100412.38;5010908;28;20470;-75
2023/03/19 01:08:36;;;;;;;21.10;15.27;;;8.30;99.90;;;9.43;100.00;100411.13;5012269;28;20034;-76
2023/03/19 01:11:17;;;;;;;23.40;15.82;;;8.20;99.90;;;9.43;100.00;100419.28;5019948;28;20121;-75
2023/03/19 01:13:43;;;;;;;22.80;15.43;;;8.20;99.90;;;9.26;100.00;100413.47;5006930;28;20034;-75
2023/03/19 01:16:09;;;;;;;22.52;16.60;;;8.10;99.90;;;9.26;100.00;100406.13;5012796;28;20099;-75
2023/03/19 01:18:35;;;;;;;26.23;18.80;;;8.20;99.90;;;9.16;100.00;100419.34;5005512;28;20045;-76
2023/03/19 01:21:02;;;;;;;28.63;20.83;;;8.20;99.90;;;9.17;100.00;100402.84;5011439;28;20042;-76
2023/03/19 01:23:30;;;;;;;31.55;22.30;;;8.20;99.90;;;9.11;100.00;100411.00;5019515;28;20035;-75
2023/03/19 01:25:56;;;;;;;31.48;20.60;;;8.20;99.90;;;8.89;100.00;100401.22;4999302;28;20042;-75
2023/03/19 01:28:23;;;;;;;34.15;21.20;;;8.10;99.90;;;8.86;100.00;100409.78;5009635;28;20030;-76
2023/03/19 01:30:49;;;;;;;31.60;20.35;;;8.10;99.90;;;8.75;100.00;100411.28;5011523;28;20057;-77
2023/03/19 01:33:30;;;;;;;27.30;18.50;;;8.00;99.90;;;8.63;100.00;100400.19;5020769;28;20026;-75
2023/03/19 01:36:03;;;;;;;25.33;18.00;;;7.90;99.90;;;8.64;100.00;100403.72;5010380;28;20035;-76
2023/03/19 01:38:36;;;;;;;25.17;18.38;;;7.90;99.90;;;8.65;100.00;100412.75;4994073;28;20525;-75
2023/03/19 01:41:05;;;;;;;27.02;18.38;;;7.90;99.90;;;8.62;100.00;100416.72;5005632;28;20048;-76
2023/03/19 01:43:32;;;;;;;33.30;20.15;;;7.80;99.90;;;8.59;100.00;100411.69;5006622;28;20079;-76
2023/03/19 01:46:37;;;;;;;28.50;19.20;;;7.80;99.90;;;8.43;100.00;100400.16;5003142;28;20034;-76
2023/03/19 01:49:30;;;;;;;28.13;20.33;;;7.80;99.90;;;8.42;100.00;100413.97;5020424;28;20041;-76
2023/03/19 01:52:15;;;;;;;35.55;22.15;;;7.80;99.90;;;8.41;100.00;100402.25;5005527;28;20338;-75
2023/03/19 01:54:58;;;;;;;31.00;21.27;;;7.80;99.90;;;8.40;100.00;100402.47;5015165;28;20057;-76
2023/03/19 01:57:45;;;;;;;32.83;21.65;;;7.80;99.90;;;8.41;100.00;100401.41;5020858;28;20034;-77
2023/03/19 02:00:30;;;;;;;36.45;23.52;;;7.90;99.90;;;8.41;100.00;100407.66;5005595;28;20057;-76
2023/03/19 02:03:01;;;;;;;33.78;23.33;;;7.80;99.90;;;8.49;100.00;100407.53;5007020;28;20042;-75
2023/03/19 02:05:57;;;;;;;33.85;23.13;;;7.90;99.90;;;8.42;100.00;100403.09;4999801;28;20052;-76
2023/03/19 02:08:24;;;;;;;34.58;23.98;;;7.90;99.90;;;8.52;100.00;100405.44;5002601;28;20033;-76
2023/03/19 02:10:54;;;;;;;35.20;24.33;;;8.00;99.90;;;8.52;100.00;100400.81;4986935;28;20467;-76
2023/03/19 02:13:22;;;;;;;39.28;25.55;;;8.00;99.90;;;8.54;100.00;100403.34;5007703;28;20493;-76
2023/03/19 02:15:49;;;;;;;35.97;23.92;;;8.10;99.90;;;8.67;100.00;100406.03;4999232;28;20042;-75
2023/03/19 02:18:16;;;;;;;37.00;24.48;;;8.20;99.90;;;8.64;100.00;100411.91;5008437;28;20075;-75
2023/03/19 02:21:02;;;;;;;36.97;23.90;;;8.10;99.90;;;8.59;100.00;100404.34;4990387;28;20400;-76
2023/03/19 02:24:21;;;;;;;36.75;25.27;;;8.10;99.90;;;8.53;100.00;100410.63;5001224;28;20456;-76
2023/03/19 02:27:08;;;;;;;35.92;23.85;;;8.10;99.90;;;8.57;100.00;100411.06;5005122;28;20152;-76
2023/03/19 02:29:36;;;;;;;39.13;26.10;;;8.20;99.90;;;8.53;100.00;100410.63;4986733;28;20029;-76
2023/03/19 02:32:02;;;;;;;39.25;26.95;;;8.20;99.90;;;8.61;100.00;100412.31;5001794;28;20038;-75
2023/03/19 02:34:39;;;;;;;40.45;25.38;;;8.30;99.90;;;8.65;100.00;100402.69;5001876;28;20040;-76
2023/03/19 02:37:29;;;;;;;41.33;25.35;;;8.30;99.90;;;8.62;100.00;100403.97;4987278;28;20395;-75
2023/03/19 02:40:06;;;;;;;38.38;24.33;;;8.30;99.90;;;8.68;100.00;100402.25;5003309;28;20118;-76
2023/03/19 02:42:33;;;;;;;36.53;24.17;;;8.30;99.90;;;8.63;100.00;100399.34;5001358;28;20432;-76
2023/03/19 02:44:59;;;;;;;35.05;23.52;;;8.30;99.90;;;8.70;100.00;100407.50;5007859;28;20033;-76
2023/03/19 02:47:26;;;;;;;34.88;21.95;;;8.40;99.90;;;8.75;100.00;100407.72;5021757;28;20497;-76
2023/03/19 02:49:52;;;;;;;31.45;21.95;;;8.40;99.90;;;8.82;100.00;100416.69;4993244;28;20038;-76
2023/03/19 02:52:19;;;;;;;32.50;22.40;;;8.40;99.90;;;8.81;100.00;100411.47;5014433;28;20045;-76
2023/03/19 02:54:45;;;;;;;32.55;21.90;;;8.40;99.90;;;8.74;100.00;100411.47;4992740;28;20041;-76
2023/03/19 02:57:11;;;;;;;30.17;21.23;;;8.30;99.90;;;8.74;100.00;100415.00;5010140;28;20041;-76
2023/03/19 02:59:37;;;;;;;30.70;20.95;;;8.30;99.90;;;8.57;100.00;100403.72;5009180;28;20029;-76
2023/03/19 03:02:05;;;;;;;30.60;20.88;;;8.20;99.90;;;8.61;100.00;100420.47;5010567;28;20045;-75
2023/03/19 03:04:33;;;;;;;29.05;21.02;;;8.20;99.90;;;8.62;100.00;100419.44;5002881;28;20038;-75
2023/03/19 03:06:59;;;;;;;30.92;21.55;;;8.20;99.90;;;8.68;100.00;100426.75;4995816;28;20029;-76
2023/03/19 03:09:26;;;;;;;31.15;21.05;;;8.30;99.90;;;8.67;100.00;100429.69;5000973;28;20034;-77
2023/03/19 03:11:52;;;;;;;31.05;21.30;;;8.30;99.90;;;8.59;100.00;100423.38;5002286;28;20048;-76
2023/03/19 03:14:17;;;;;;;28.95;20.10;;;8.20;99.90;;;8.48;100.00;100419.38;4997140;28;20433;-76
2023/03/19 03:16:44;;;;;;;33.15;20.02;;;8.20;99.90;;;8.47;100.00;100419.59;5002181;28;20034;-76
2023/03/19 03:19:10;;;;;;;30.88;20.30;;;8.20;99.90;;;8.46;100.00;100417.94;4992959;28;20053;-75
2023/03/19 03:21:36;;;;;;;30.80;19.98;;;8.20;99.90;;;8.48;100.00;100426.72;5000304;28;20177;-75
2023/03/19 03:24:03;;;;;;;29.60;19.95;;;8.20;99.90;;;8.46;100.00;100426.91;5006181;28;20473;-75
2023/03/19 03:26:28;;;;;;;27.00;19.45;;;8.20;99.90;;;8.46;100.00;100436.97;4992883;28;20041;-76
2023/03/19 03:28:54;;;;;;;26.60;18.80;;;8.20;99.90;;;8.39;100.00;100433.41;5009645;28;20033;-75
2023/03/19 03:31:21;;;;;;;26.23;19.60;;;8.20;99.90;;;8.26;100.00;100431.50;5005839;28;20034;-75
2023/03/19 03:33:49;;;;;;;29.75;19.23;;;8.10;99.90;;;8.16;100.00;100424.56;4995807;28;20569;-76
2023/03/19 03:36:14;;;;;;;26.45;18.67;;;8.00;99.90;;;8.19;100.00;100426.06;4997862;28;20129;-76
2023/03/19 03:38:40;;;;;;;27.38;18.63;;;8.00;99.90;;;8.25;100.00;100435.28;5007362;28;20117;-75
2023/03/19 03:41:06;;;;;;;28.98;19.13;;;8.00;99.90;;;8.26;100.00;100429.63;4996682;28;20046;-75
2023/03/19 03:43:32;;;;;;;26.10;18.10;;;8.00;99.90;;;8.30;100.00;100438.19;4997641;28;20478;-75
2023/03/19 03:45:58;;;;;;;27.25;17.98;;;8.00;99.90;;;8.41;100.00;100439.47;4991065;28;20038;-75
2023/03/19 03:48:24;;;;;;;27.55;18.80;;;8.20;99.90;;;8.41;100.00;100436.75;5001500;28;20494;-75
2023/03/19 03:50:50;;;;;;;28.20;19.67;;;8.20;99.90;;;8.49;100.00;100437.44;5007697;28;20030;-76
2023/03/19 03:53:21;;;;;;;25.08;17.60;;;8.10;99.90;;;8.56;100.00;100436.59;5005557;28;20043;-76
2023/03/19 03:55:47;;;;;;;27.98;18.08;;;8.10;99.90;;;8.61;100.00;100443.06;5007924;28;20080;-77
2023/03/19 03:58:15;;;;;;;24.92;16.92;;;8.10;99.90;;;8.82;100.00;100443.06;5007248;28;20037;-76
2023/03/19 04:00:41;;;;;;;21.27;16.13;;;8.10;99.90;;;8.63;100.00;100434.69;4999087;28;20038;-76
2023/03/19 04:03:07;;;;;;;21.52;15.88;;;8.20;99.90;;;8.95;100.00;100434.06;5013042;28;20378;-77
2023/03/19 04:05:33;;;;;;;22.02;14.93;;;8.20;99.90;;;8.80;100.00;100442.44;5008611;28;20034;-76
2023/03/19 04:08:00;;;;;;;21.80;15.02;;;8.10;99.90;;;8.63;100.00;100429.25;5010225;28;20088;-76
2023/03/19 04:10:25;;;;;;;22.48;15.45;;;8.10;99.90;;;8.68;100.00;100439.53;5018193;28;20516;-77
2023/03/19 04:12:51;;;;;;;19.88;14.27;;;8.10;99.90;;;8.65;100.00;100437.22;5007915;28;20062;-76
2023/03/19 04:15:17;;;;;;;21.25;14.70;;;8.10;99.90;;;8.67;100.00;100435.13;4998843;28;20375;-74
2023/03/19 04:17:46;;;;;;;20.02;14.02;;;8.10;99.90;;;8.63;100.00;100440.13;5010967;28;20385;-74
2023/03/19 04:20:12;;;;;;;21.58;14.73;;;8.10;99.90;;;8.68;100.00;100445.78;5011671;28;20050;-76
2023/03/19 04:22:38;;;;;;;22.88;14.82;;;8.20;99.90;;;8.86;100.00;100436.16;5000775;28;20478;-76
2023/03/19 04:25:07;;;;;;;17.75;13.43;;;8.10;99.90;;;8.79;100.00;100433.44;5007581;28;20041;-75
2023/03/19 04:27:33;;;;;;;19.27;13.10;;;8.20;99.90;;;8.77;100.00;100430.09;5005711;28;20511;-76
2023/03/19 04:29:59;;;;;;;18.50;13.27;;;8.20;99.90;;;8.94;100.00;100437.81;4996234;28;20117;-75
2023/03/19 04:32:25;;;;;;;20.77;12.20;;;8.30;99.90;;;8.99;100.00;100433.41;5007055;28;20068;-76
2023/03/19 04:34:52;;;;;;;17.70;11.93;;;8.50;99.90;;;9.07;100.00;100430.47;5008297;28;20100;-76
2023/03/19 04:37:18;;;;;;;20.75;11.90;;;8.50;99.90;;;9.09;100.00;100424.81;5012804;28;20448;-76
2023/03/19 04:39:47;;;;;;;15.95;11.35;;;8.50;99.90;;;9.19;100.00;100422.50;5016247;28;20045;-76
2023/03/19 04:42:14;;;;;;;17.73;10.82;;;8.60;99.90;;;9.28;100.00;100425.84;4998566;28;20038;-76
2023/03/19 04:44:47;;;;;;;14.52;10.38;;;8.60;99.90;;;9.24;100.00;100426.47;5006803;28;20048;-76
2023/03/19 04:47:13;;;;;;;14.65;10.48;;;8.60;99.90;;;9.20;100.00;100424.19;5010556;28;20116;-76
2023/03/19 04:49:48;;;;;;;13.73;9.63;;;8.60;99.90;;;9.17;100.00;100431.91;5010024;28;20367;-76
2023/03/19 04:52:16;;;;;;;12.95;9.52;;;8.60;99.90;;;9.11;100.00;100424.63;4995024;28;20129;-75
2023/03/19 04:54:42;;;;;;;14.70;9.48;;;8.50;99.90;;;9.07;100.00;100419.59;5010698;28;20034;-75
2023/03/19 04:57:08;;;;;;;12.25;9.55;;;8.50;99.90;;;9.03;100.00;100421.06;4999243;28;20038;-75
2023/03/19 04:59:37;;;;;;;11.95;8.50;;;8.40;99.90;;;8.89;100.00;100411.25;5009415;28;20073;-76
2023/03/19 05:02:04;;;;;;;13.50;10.13;;;8.40;99.90;;;8.86;100.00;100425.28;4996979;28;20390;-76
2023/03/19 05:04:32;;;;;;;14.05;9.32;;;8.30;99.90;;;8.69;100.00;100425.69;5019412;28;20121;-74
2023/03/19 05:07:03;;;;;;;15.05;9.02;;;8.30;99.90;;;8.62;100.00;100419.44;5009528;28;20354;-75
2023/03/19 05:09:30;;;;;;;13.32;9.57;;;8.10;99.90;;;8.52;100.00;100424.47;5012598;28;20031;-75
2023/03/19 05:11:57;;;;;;;11.68;8.40;;;8.00;99.90;;;8.41;100.00;100426.69;4999743;28;20045;-75
2023/03/19 05:14:23;;;;;;;13.18;8.90;;;8.00;99.90;;;8.38;100.00;100429.03;5004342;28;20085;-75
2023/03/19 05:17:09;;;;;;;12.57;9.07;;;7.80;99.90;;;8.32;100.00;100438.84;5008651;28;20049;-75
2023/03/19 05:19:47;;;;;;;12.88;9.30;;;7.80;99.90;;;8.29;100.00;100434.63;5008804;28;20382;-76
2023/03/19 05:22:13;;;;;;;16.38;10.10;;;7.80;99.90;;;8.31;100.00;100434.44;5007956;28;20026;-77
2023/03/19 05:24:39;;;;;;;12.40;8.70;;;7.70;99.90;;;8.24;100.00;100429.00;5002053;28;20109;-76
2023/03/19 05:27:07;;;;;;;12.68;9.70;;;7.70;99.90;;;8.33;100.00;100440.50;5010839;28;20033;-75
2023/03/19 05:29:55;;;;;;;12.88;9.73;;;7.80;99.90;;;8.18;100.00;100436.06;4998869;28;20043;-75
2023/03/19 05:32:40;;;;;;;13.70;9.20;;;7.70;99.90;;;7.90;100.00;100431.63;5006233;28;20104;-76
2023/03/19 05:35:13;;;;;;;13.68;9.35;;;7.50;99.90;;;7.71;100.00;100443.28;5010619;28;20042;-76
2023/03/19 05:37:39;;;;;;;14.70;10.13;;;7.30;99.90;;;7.54;100.00;100438.19;5010941;28;20033;-75
2023/03/19 05:40:06;;;;;;;18.67;11.65;;;7.20;99.90;;;7.52;100.00;100437.56;4992798;28;20029;-76
2023/03/19 05:42:32;;;;;;;18.88;10.88;;;7.10;99.90;;;7.48;100.00;100442.53;5009932;28;20037;-76
2023/03/19 05:44:59;;;;;;;15.77;10.90;;;7.10;99.90;;;7.60;100.00;100448.22;5007407;28;20030;-75
2023/03/19 05:47:27;;;;;;;19.05;12.60;;;7.20;99.90;;;7.78;100.00;100455.00;5002923;28;20120;-76
2023/03/19 05:49:56;;;;;;;16.65;12.05;;;7.40;99.90;;;7.87;100.00;100461.09;4990872;28;20030;-76
2023/03/19 05:52:22;;;;;;;21.13;13.30;;;7.40;99.90;;;7.90;100.00;100463.41;5007693;28;20164;-76
2023/03/19 05:54:49;;;;;;;20.92;13.82;;;7.50;99.90;;;7.95;100.00;100462.75;5021646;28;20394;-75
2023/03/19 05:57:33;;;;;;;19.27;13.48;;;7.60;99.90;;;8.07;100.00;100456.53;4996159;28;20046;-77
2023/03/19 06:00:14;;;;;;;20.48;13.75;;;7.70;99.90;;;8.23;100.00;100454.50;4993702;28;20121;-76
2023/03/19 06:02:41;;;;;;;19.77;14.45;;;7.90;99.90;;;8.35;100.00;100466.44;4995548;28;20049;-76
2023/03/19 06:05:34;;;;;;;19.85;15.60;;;8.00;99.90;;;8.53;100.00;100464.19;4999164;28;20117;-76
2023/03/19 06:08:08;;;;;;;20.65;15.38;;;8.20;99.90;;;8.63;100.00;100453.72;5007690;28;20037;-75
2023/03/19 06:10:51;;;;;;;22.02;14.60;;;8.30;99.90;;;8.83;100.00;100463.78;4988944;28;20034;-75
2023/03/19 06:13:17;;;;;;;20.27;13.50;;;8.50;99.90;;;8.96;100.00;100457.50;4999668;28;20050;-75
2023/03/19 06:15:52;;;;;;;17.67;12.40;;;8.60;99.90;;;9.01;100.00;100458.53;5004753;28;20044;-74
2023/03/19 06:18:23;;;;;;;15.63;11.23;;;8.80;99.90;;;9.22;100.00;100462.06;4994161;28;20070;-74
2023/03/19 06:20:49;;;;;;;13.85;10.55;;;9.00;99.90;;;9.36;100.00;100451.97;5006317;28;20038;-74
2023/03/19 06:23:16;;;;;;;14.30;10.73;;;9.00;99.90;;;9.43;100.00;100460.13;5002890;28;20133;-74
2023/03/19 06:25:41;;;;;;;14.98;10.57;;;9.20;99.90;;;9.46;100.00;100454.25;4994411;28;20109;-75
2023/03/19 06:28:07;;;;;;;15.18;9.25;;;9.20;99.90;;;9.53;100.00;100449.59;4987270;28;20140;-76
2023/03/19 06:30:37;;;;;;;13.68;9.00;;;9.20;99.90;;;9.77;100.00;100460.84;5007491;28;20026;-76
2023/03/19 06:33:13;;;;;;;14.57;9.63;;;9.40;99.90;;;10.03;100.00;100467.22;4993066;28;20053;-76
2023/03/19 06:35:40;;;;;;;13.35;10.20;;;9.60;99.90;;;10.25;100.00;100480.53;5003374;28;20040;-76
2023/03/19 06:38:06;;;;;;;14.45;9.80;;;9.90;99.90;;;10.42;100.00;100469.97;5006585;28;20046;-77
2023/03/19 06:40:32;;;;;;;14.32;9.70;;;10.10;99.90;;;10.15;100.00;100473.66;4993900;28;20482;-76
2023/03/19 06:42:58;;;;;;;13.00;9.07;;;10.00;99.90;;;10.11;100.00;100477.03;4996729;28;20061;-75
2023/03/19 06:45:24;;;;;;;11.85;8.70;;;9.90;99.90;;;10.05;100.00;100484.19;5015563;28;20369;-76
2023/03/19 06:47:50;;;;;;;10.23;7.65;;;9.90;99.90;;;9.96;100.00;100483.63;5008976;28;20046;-75
2023/03/19 06:50:16;;;;;;;10.77;7.95;;;9.90;99.90;;;10.06;100.00;100483.97;5003988;28;20243;-76
2023/03/19 06:52:43;;;;;;;10.90;7.97;;;9.80;99.90;;;10.18;100.00;100489.59;5003632;28;20037;-76
2023/03/19 06:55:11;;;;;;;10.63;7.63;;;9.90;99.90;;;10.24;100.00;100495.22;5008111;28;20124;-77
2023/03/19 06:57:37;;;;;;;13.02;7.57;;;9.90;99.90;;;10.30;100.00;100489.72;4993950;28;20042;-78
2023/03/19 07:00:05;;;;;;;10.45;8.30;;;9.90;99.90;;;10.32;100.00;100505.84;4999590;28;20110;-75
2023/03/19 07:02:31;;;;;;;13.77;8.80;;;10.00;99.90;;;10.35;100.00;100494.53;4993403;28;20050;-75
2023/03/19 07:04:56;;;;;;;10.57;8.23;;;10.00;99.90;;;10.48;100.00;100505.38;4997564;28;20089;-75
2023/03/19 07:07:22;;;;;;;11.30;9.27;;;10.10;99.90;;;10.55;100.00;100518.97;4993063;28;20050;-75
2023/03/19 07:09:48;;;;;;;12.52;9.27;;;10.10;99.90;;;10.59;100.00;100513.91;4999352;28;20040;-75
2023/03/19 07:12:14;;;;;;;12.07;8.48;;;10.10;99.90;;;10.55;100.00;100518.13;4998923;28;20038;-74
2023/03/19 07:14:39;;;;;;;13.25;8.02;;;10.10;99.90;;;10.46;100.00;100515.66;4992014;28;20040;-77
2023/03/19 07:17:05;;;;;;;9.25;7.63;;;10.10;99.90;;;10.49;100.00;100520.69;4992229;28;20043;-76
2023/03/19 07:19:31;;;;;;;10.13;7.18;;;10.10;99.90;;;10.52;100.00;100524.03;5000136;28;20111;-75
2023/03/19 07:21:57;;;;;;;9.93;7.40;;;10.10;99.90;;;10.46;100.00;100518.41;5008302;28;20073;-75
2023/03/19 07:24:22;;;;;;;12.23;7.10;;;10.10;99.90;;;10.51;100.00;100520.47;4994450;28;20036;-75
2023/03/19 07:26:48;;;;;;;11.40;7.38;;;10.10;99.90;;;10.48;100.00;100519.00;5004266;28;20135;-75
2023/03/19 07:29:14;;;;;;;9.80;7.18;;;10.20;99.90;;;10.39;100.00;100525.75;4996079;28;20042;-75
2023/03/19 07:31:40;;;;;;;9.70;6.72;;;10.20;99.90;;;10.49;100.00;100537.03;4996207;28;20085;-76
2023/03/19 07:34:06;;;;;;;11.38;6.55;;;10.10;99.90;;;10.46;100.00;100532.03;4997203;28;20050;-75
2023/03/19 07:36:31;;;;;;;11.68;6.88;;;10.20;99.90;;;10.40;100.00;100532.91;5006599;28;20517;-75
2023/03/19 07:38:57;;;;;;;8.80;6.72;;;10.20;99.90;;;10.44;100.00;100538.75;5006340;28;20049;-74
2023/03/19 07:41:23;;;;;;;9.43;6.32;;;10.20;99.90;;;10.59;100.00;100538.44;4989418;28;20114;-76
2023/03/19 07:43:49;;;;;;;8.68;6.50;;;10.20;99.90;;;10.54;100.00;100532.81;5000149;28;20061;-75
2023/03/19 07:46:15;;;;;;;10.50;7.53;;;10.30;99.90;;;10.42;100.00;100538.13;4995441;28;20042;-74
2023/03/19 07:48:40;;;;;;;13.63;7.32;;;10.20;99.90;;;10.36;100.00;100539.84;5002582;28;20037;-74
2023/03/19 07:51:06;;;;;;;11.98;6.60;;;10.20;99.90;;;10.45;100.00;100535.81;4996520;28;20054;-74
2023/03/19 07:53:32;;;;;;;12.75;6.53;;;10.20;99.90;;;10.55;100.00;100545.41;4993259;28;20026;-74
2023/03/19 07:55:58;;;;;;;9.07;5.63;;;10.30;99.90;;;10.58;100.00;100544.97;4990300;28;20042;-74
2023/03/19 07:58:25;;;;;;;10.30;5.68;;;10.40;99.90;;;10.72;100.00;100552.03;4993713;28;20053;-74
2023/03/19 08:00:52;;;;;;;8.13;5.32;;;10.40;99.90;;;10.75;100.00;100548.84;4990026;28;20035;-74
2023/03/19 08:03:18;;;;;;;8.23;5.47;;;10.50;99.90;;;10.84;100.00;100548.56;5000454;28;20710;-75
2023/03/19 08:05:43;;;;;;;8.00;5.43;;;10.50;99.90;;;11.31;100.00;100554.50;4995388;28;20046;-74
2023/03/19 08:08:09;;;;;;;7.95;5.05;;;10.60;99.90;;;11.08;100.00;100550.47;5009805;28;20508;-75
2023/03/19 08:10:36;;;;;;;11.40;4.78;;;10.70;99.90;;;11.08;100.00;100550.47;4995250;28;20034;-75
2023/03/19 08:13:02;;;;;;;9.95;4.90;;;10.70;99.90;;;11.16;100.00;100552.09;4994341;28;20030;-74
2023/03/19 08:15:28;;;;;;;9.23;4.75;;;10.90;99.90;;;11.17;100.00;100550.22;5007047;28;20041;-75
2023/03/19 08:17:59;;;;;;;8.88;4.90;;;11.00;99.90;;;11.21;100.00;100557.72;4996517;28;20030;-74
2023/03/19 08:20:24;;;;;;;7.45;4.78;;;11.00;99.90;;;11.29;100.00;100544.88;5003447;28;20046;-74
2023/03/19 08:22:50;;;;;;;9.65;4.78;;;11.00;99.90;;;11.20;100.00;100547.88;4992207;28;20038;-74
2023/03/19 08:25:16;;;;;;;8.23;4.55;;;11.10;99.90;;;11.27;100.00;100555.16;4992047;28;20038;-75
2023/03/19 08:27:42;;;;;;;7.25;4.32;;;11.10;99.90;;;11.50;100.00;100558.09;4998724;28;20038;-75
2023/03/19 08:30:10;;;;;;;9.18;4.90;;;11.20;99.90;;;11.55;100.00;100549.22;4998615;28;20125;-76
2023/03/19 08:32:36;;;;;;;8.18;4.80;;;11.30;99.90;;;11.59;100.00;100544.97;5001325;28;20125;-75
2023/03/19 08:35:05;;;;;;;11.75;5.03;;;11.30;99.90;;;11.74;100.00;100547.34;4999529;28;20585;-74
2023/03/19 08:37:30;;;;;;;;;;;11.50;99.90;;;11.83;100.00;100547.88;5009648;28;20070;-75
2023/03/19 08:39:56;;;;;;;7.85;4.80;;;11.60;99.90;;;11.97;100.00;100543.09;5007690;28;19960;-73
2023/03/19 08:42:22;;;;;;;8.60;4.47;;;11.70;99.90;;;12.14;100.00;100551.53;5006414;28;20038;-74
2023/03/19 08:44:48;;;;;;;8.38;3.85;;;11.90;99.90;;;12.27;100.00;100539.59;5001660;28;20458;-73
2023/03/19 08:47:14;;;;;;;7.68;3.92;;;12.10;99.90;;;12.34;100.00;100540.34;4997168;28;20046;-73
2023/03/19 08:49:40;;;;;;;10.68;4.22;;;12.20;99.90;;;12.72;100.00;100542.97;4996436;28;20037;-74
2023/03/19 08:52:06;;;;;;;9.23;4.35;;;12.40;99.90;;;12.87;100.00;100557.06;4995350;28;20046;-74
2023/03/19 08:54:32;;;;;;;7.00;4.22;;;12.60;99.90;;;13.15;100.00;100541.03;4995985;28;20031;-74
2023/03/19 08:57:00;;;;;;;7.20;4.10;;;12.90;99.90;;;13.26;100.00;100533.88;5004068;28;20034;-74
2023/03/19 08:59:27;;;;;;;6.35;3.38;;;13.00;99.90;;;13.23;100.00;100540.66;4996392;28;20050;-75
2023/03/19 09:01:53;;;;;;;6.33;3.20;;;13.20;99.90;;;13.04;100.00;100537.19;5006459;28;20040;-73
2023/03/19 09:04:22;;;;;;;6.10;3.75;;;13.20;99.90;;;13.12;100.00;100544.25;4995256;28;20066;-73
2023/03/19 09:06:51;;;;;;;5.20;3.22;;;13.20;99.90;;;13.24;100.00;100553.28;5009107;28;20038;-74
2023/03/19 09:09:19;;;;;;;6.80;3.13;;;13.20;99.90;;;13.48;100.00;100548.69;4995370;28;20070;-74
2023/03/19 09:11:45;;;;;;;6.13;3.08;;;13.40;99.90;;;13.42;100.00;100554.25;4995107;28;20084;-74
2023/03/19 09:14:12;;;;;;;6.93;3.47;;;13.40;99.90;;;13.50;100.00;100537.47;5007878;28;20053;-74
2023/03/19 09:16:39;;;;;;;4.95;3.10;;;13.40;99.90;;;13.69;100.00;100551.06;5004198;28;20541;-75
2023/03/19 09:19:05;;;;;;;5.75;3.10;;;13.50;99.90;;;13.81;100.00;100547.22;5004809;28;20097;-76
2023/03/19 09:21:31;;;;;;;6.07;2.53;;;13.60;99.90;;;13.86;100.00;100548.41;5008283;28;20041;-74
2023/03/19 09:23:57;;;;;;;6.57;3.15;;;13.80;99.90;;;14.19;100.00;100555.13;5005072;28;20377;-75
2023/03/19 09:26:22;;;;;;;5.50;2.97;;;14.00;99.90;;;14.36;100.00;100550.53;4997682;28;20108;-74
2023/03/19 09:28:48;;;;;;;5.72;2.83;;;14.20;99.90;;;14.47;97.87;100548.81;5006015;28;20034;-75
2023/03/19 09:31:14;;;;;;;5.82;2.50;;;14.40;99.90;;;14.85;95.39;100543.78;5001699;28;20046;-74
2023/03/19 09:33:39;;;;;;;4.25;2.70;;;14.70;99.90;;;14.87;92.08;100538.03;5010123;28;20038;-74
2023/03/19 09:36:06;;;;;;;5.55;2.60;;;14.90;99.90;;;15.33;93.89;100549.75;5000433;28;20046;-74
2023/03/19 09:38:32;;;;;;;4.90;2.22;;;;;;;15.63;90.47;100547.72;4997529;28;20053;-75
2023/03/19 09:41:22;;;;;;;3.55;1.70;;;15.20;99.90;;;15.62;83.81;100516.63;4999798;28;20037;-75
2023/03/19 09:44:02;;;;;;;5.00;1.88;;;15.90;99.90;;;15.61;84.45;100536.16;5009300;28;20176;-76
2023/03/19 09:46:57;;;;;;;3.85;2.10;;;15.90;99.90;;;15.83;87.39;100541.66;5001599;28;20111;-75
2023/03/19 09:49:36;;;;;;;4.10;1.80;;;15.90;99.90;;;16.00;82.76;100538.88;4994171;28;20046;-74
2023/03/19 09:52:19;;;;;;;3.95;1.90;;;16.10;99.90;;;16.12;79.88;100535.19;4997841;28;20034;-74
2023/03/19 09:54:51;;;;;;;3.10;1.67;;;16.10;99.90;;;16.06;80.06;100542.53;4996726;28;20108;-74
2023/03/19 09:57:18;;;;;;;3.58;1.92;;;;;;;16.31;78.44;100542.03;5001517;28;20401;-74
2023/03/19 09:59:45;;;;;;;3.42;1.80;;;;;;;16.19;79.10;100544.06;5000675;28;20038;-75
2023/03/19 10:02:27;;;;;;;4.05;1.65;;;;;;;16.52;78.53;100545.00;5009729;28;20038;-73
2023/03/19 10:05:04;;;;;;;4.30;1.73;;;;;;;16.92;77.82;100540.97;4997923;28;20046;-72
2023/03/19 10:08:00;;;;;;;4.75;1.63;;;;;;;17.59;70.30;100524.13;5000024;28;20053;-73
2023/03/19 10:10:50;;;;;;;2.53;1.38;;;;;;;17.99;67.01;100524.59;4999917;28;20062;-74
2023/03/19 10:13:54;;;;;;;2.60;1.40;;;;;;;18.49;67.27;100535.28;5016479;28;20034;-74
2023/03/19 10:16:23;;;;;;;3.88;1.42;;;;;;;18.86;62.06;100514.03;5017398;28;20088;-74
2023/03/19 10:18:53;;;;;;;2.83;1.15;;;;;;;19.00;60.22;100515.16;5018579;28;20132;-75